Terminal Aerodrome Forecast
Issued by NWS Mt. Holly, NJ

Home | Current Version | Previous Version | Text Only | Print | Product List | Glossary On
Versions: 1 2 3 4 5 6 7 8 9 10 11 12 13 14 15 16 17 18 19 20 21 22 23 24 25 26 27 28 29 30 31 32 33 34 35 36 37
000
FTAK31 PANC 201545 AAC
TAFABE
TAF AMD
PABE 201545Z 2016/2112 32006KT P6SM VCFG SCT150
      TEMPO 2016/2018 1SM BR
     FM201900 32004KT P6SM SCT040 BKN150
     FM210000 36006KT P6SM SCT040 BKN200=

USA.gov is the U.S. government's official web portal to all federal, state and local government web resources and services.